Levan, Illinois
Current Conditions -  °F | °C
As of 8:52 PM on Sunday 23 Nov 2014 (Local Time) from KMDH Reporting Station
Overcast Overcast  
Wind Chill: 57°   Ceiling: 800
Heat Index: 57°   Visibility: 10mi
Dew Point: 54°   Wind: 18mph
Humidity: 89%   Direction: 220°SW
Pressure: 29.3"   Gusts: 26mph
Location:  37.776°N, 89.3234°W
Report Text: KMDH 240252Z AUTO 22016G23KT 10SM OVC008 14/12 A2930 RMK AO2 SLP919 60011 T01390122 55005
Loading
Personal Weather Stations






























Interactive Weather Map New forecast layout! Learn more

10-Day Weather Forecast

Advertisements
Track Severe Weather on mobile